Loda, Illinois
Current Conditions -  °F | °C
As of 3:30 AM on Sunday 23 Nov 2014 (Local Time) from KTIP Reporting Station
Overcast Overcast  
Wind Chill:   Ceiling: 6000
Heat Index:   Visibility: 10mi
Dew Point:   Wind: 9mph
Humidity: 88%   Direction: 150°SSE
Pressure: 29.83"   Gusts: NA
Location:  40.52°N, 88.07°W
Report Text: KTIP 230930Z AUTO 15008KT 10SM BKN060 BKN075 OVC085 09/07 A2983 RMK AO2 T00860067
Loading
Personal Weather Stations






























Interactive Weather Map New forecast layout! Learn more

10-Day Weather Forecast

Advertisements
Track Severe Weather on mobile